Time;durP1;ratioP1;P1;durP2;ratioP2;P2;SDS_P1;SDS_P2;PMS_P1;PMS_P2;Temp;Humidity;BMP_temperature;BMP_pressure;BME280_temperature;BME280_humidity;BME280_pressure;Samples;Min_cycle;Max_cycle;Signal;HPM_P1;HPM_P2
2022/05/17 00:01:04;;;;;;;5.53;1.77;;;13.20;99.90;;;;;;6156064;23;20028;-85
2022/05/17 00:03:32;;;;;;;1.65;1.38;;;13.20;99.90;;;;;;6132492;23;20077;-85
2022/05/17 00:06:00;;;;;;;3.15;1.67;;;13.20;99.90;;;;;;6177372;23;20021;-86
2022/05/17 00:08:28;;;;;;;2.53;2.00;;;13.20;99.90;;;;;;6188085;23;20017;-85
2022/05/17 00:10:56;;;;;;;4.43;3.90;;;13.20;99.90;;;;;;6192768;23;20029;-83
2022/05/17 00:13:43;;;;;;;7.00;2.75;;;13.20;99.90;;;;;;6181766;23;20052;-84
2022/05/17 00:17:09;;;;;;;2.50;2.30;;;13.20;99.90;;;;;;6188686;23;20028;-86
2022/05/17 00:20:11;;;;;;;5.20;2.38;;;13.20;99.90;;;;;;6178407;23;20024;-85
2022/05/17 00:23:17;;;;;;;4.95;2.75;;;13.10;99.90;;;;;;6194051;23;20017;-86
2022/05/17 00:26:08;;;;;;;2.42;1.92;;;13.10;99.90;;;;;;6156243;23;20520;-86
2022/05/17 00:29:20;;;;;;;3.80;2.53;;;13.00;99.90;;;;;;6156894;23;20033;-85
2022/05/17 00:32:41;;;;;;;2.90;2.03;;;13.00;99.90;;;;;;6188855;23;20036;-85
2022/05/17 00:35:35;;;;;;;2.10;1.92;;;13.00;99.90;;;;;;6192564;23;20013;-85
2022/05/17 00:38:03;;;;;;;4.00;2.70;;;12.90;99.90;;;;;;6167424;23;20024;-85
2022/05/17 00:40:31;;;;;;;3.42;3.10;;;12.90;99.90;;;;;;6155506;23;20025;-86
2022/05/17 00:43:11;;;;;;;6.65;3.63;;;13.00;99.90;;;;;;6191039;23;20013;-85
2022/05/17 00:45:46;;;;;;;4.25;2.47;;;12.90;99.90;;;;;;6184736;23;20025;-85
2022/05/17 00:48:19;;;;;;;3.90;2.70;;;12.90;99.90;;;;;;6154898;23;20021;-86
2022/05/17 00:50:51;;;;;;;4.03;3.70;;;12.90;99.90;;;;;;6155818;23;20032;-86
2022/05/17 00:53:31;;;;;;;3.05;2.80;;;13.00;99.90;;;;;;6184207;23;20040;-85
2022/05/17 00:56:02;;;;;;;5.55;3.08;;;13.00;99.90;;;;;;6180213;23;20013;-86
2022/05/17 00:58:41;;;;;;;5.05;3.70;;;13.00;99.90;;;;;;6192030;23;20009;-85
2022/05/17 01:01:18;;;;;;;3.55;2.20;;;13.00;99.90;;;;;;6155297;23;20523;-82
2022/05/17 01:03:53;;;;;;;2.63;1.85;;;13.00;99.90;;;;;;6180746;23;20013;-87
2022/05/17 01:06:24;;;;;;;5.25;2.22;;;13.00;99.90;;;;;;6179364;23;20029;-85
2022/05/17 01:08:52;;;;;;;4.53;3.03;;;13.00;99.90;;;;;;6186569;23;20479;-86
2022/05/17 01:11:20;;;;;;;2.22;1.80;;;13.00;99.90;;;;;;6190699;23;20017;-85
2022/05/17 01:16:34;;;;;;;2.67;2.33;;;12.90;99.90;;;;;;6189081;23;20021;-86
2022/05/17 01:19:04;;;;;;;2.28;2.08;;;12.90;99.90;;;;;;6155662;23;20021;-86
2022/05/17 01:21:32;;;;;;;6.50;3.38;;;12.90;99.90;;;;;;6134769;23;20026;-86
2022/05/17 01:23:59;;;;;;;5.70;3.13;;;12.80;99.90;;;;;;6126017;23;20024;-85
2022/05/17 01:26:31;;;;;;;7.05;3.17;;;12.80;99.90;;;;;;6141317;23;20016;-86
2022/05/17 01:28:59;;;;;;;4.10;2.05;;;12.80;99.90;;;;;;6187366;23;20021;-86
2022/05/17 01:31:28;;;;;;;3.15;2.22;;;12.80;99.90;;;;;;6133168;23;20017;-86
2022/05/17 01:33:56;;;;;;;3.15;2.15;;;12.80;99.90;;;;;;6185386;23;20033;-85
2022/05/17 01:36:23;;;;;;;4.70;2.90;;;12.80;99.90;;;;;;6164246;23;20017;-85
2022/05/17 01:38:51;;;;;;;4.57;2.75;;;12.80;99.90;;;;;;6157739;23;20025;-86
2022/05/17 01:41:21;;;;;;;5.00;2.53;;;12.80;99.90;;;;;;6170098;23;20025;-86
2022/05/17 01:43:53;;;;;;;4.55;2.33;;;12.80;99.90;;;;;;6162951;23;20018;-85
2022/05/17 01:46:21;;;;;;;9.02;3.13;;;12.70;99.90;;;;;;6127216;23;20652;-86
2022/05/17 01:48:49;;;;;;;3.08;2.88;;;12.80;99.90;;;;;;6158266;23;20017;-86
2022/05/17 01:51:17;;;;;;;5.28;3.70;;;12.80;99.90;;;;;;6103297;23;20025;-85
2022/05/17 01:53:45;;;;;;;9.20;3.25;;;12.80;99.90;;;;;;6201453;23;20333;-85
2022/05/17 01:56:13;;;;;;;2.60;2.40;;;12.80;99.90;;;;;;6195517;23;20012;-87
2022/05/17 01:58:41;;;;;;;13.13;3.83;;;12.80;99.90;;;;;;6197553;23;20035;-85
2022/05/17 02:01:10;;;;;;;2.42;2.22;;;12.80;99.90;;;;;;6218109;23;20029;-86
2022/05/17 02:03:38;;;;;;;7.32;3.15;;;12.90;99.90;;;;;;6222185;23;20032;-85
2022/05/17 02:06:06;;;;;;;9.75;3.90;;;12.80;99.90;;;;;;6185758;23;20032;-86
2022/05/17 02:08:34;;;;;;;3.17;2.03;;;12.80;99.90;;;;;;6220869;23;20020;-86
2022/05/17 02:11:03;;;;;;;5.95;2.65;;;12.70;99.90;;;;;;6172598;23;20340;-85
2022/05/17 02:13:47;;;;;;;4.68;3.53;;;12.70;99.90;;;;;;6162044;23;20459;-86
2022/05/17 02:16:15;;;;;;;4.40;2.72;;;12.70;99.90;;;;;;6136530;23;20021;-84
2022/05/17 02:18:47;;;;;;;5.90;2.45;;;12.80;99.90;;;;;;6223746;23;20012;-84
2022/05/17 02:21:15;;;;;;;6.97;2.92;;;12.70;99.90;;;;;;6215169;23;20039;-85
2022/05/17 02:23:43;;;;;;;6.82;3.95;;;12.70;99.90;;;;;;6223881;23;20016;-84
2022/05/17 02:26:11;;;;;;;3.40;2.35;;;12.70;99.90;;;;;;6211352;23;20364;-84
2022/05/17 02:28:43;;;;;;;2.63;2.33;;;12.70;99.90;;;;;;6136604;23;20031;-84
2022/05/17 02:31:15;;;;;;;4.38;3.00;;;12.70;99.90;;;;;;6186657;23;20016;-84
2022/05/17 02:33:43;;;;;;;8.95;4.57;;;12.70;99.90;;;;;;6186672;23;20025;-86
2022/05/17 02:36:11;;;;;;;2.95;2.30;;;12.60;99.90;;;;;;6160982;23;20547;-85
2022/05/17 02:38:39;;;;;;;5.05;4.03;;;12.70;99.90;;;;;;6186582;23;20042;-85
2022/05/17 02:41:07;;;;;;;7.05;3.92;;;12.70;99.90;;;;;;6185036;23;20029;-84
2022/05/17 02:43:34;;;;;;;7.50;3.30;;;12.70;99.90;;;;;;6162349;23;20020;-83
2022/05/17 02:46:07;;;;;;;8.25;3.17;;;12.70;99.90;;;;;;6211909;23;20028;-84
2022/05/17 02:48:35;;;;;;;4.15;3.08;;;12.70;99.90;;;;;;6218497;23;20016;-85
2022/05/17 02:51:17;;;;;;;3.80;2.92;;;12.70;99.90;;;;;;6208578;23;20361;-84
2022/05/17 02:53:45;;;;;;;3.67;3.13;;;12.70;99.90;;;;;;6156490;23;20893;-84
2022/05/17 02:56:12;;;;;;;3.95;3.60;;;12.70;99.90;;;;;;6156313;23;20357;-85
2022/05/17 02:58:40;;;;;;;2.78;2.60;;;12.80;99.90;;;;;;6191657;23;20024;-83
2022/05/17 03:01:08;;;;;;;3.72;2.90;;;12.80;99.90;;;;;;6180767;23;20025;-84
2022/05/17 03:03:39;;;;;;;9.38;3.80;;;12.80;99.90;;;;;;6193289;23;20013;-83
2022/05/17 03:06:07;;;;;;;4.90;3.08;;;12.80;99.90;;;;;;6182761;23;20032;-83
2022/05/17 03:08:36;;;;;;;5.10;2.80;;;12.80;99.90;;;;;;6189318;23;20029;-83
2022/05/17 03:11:07;;;;;;;5.80;2.95;;;12.80;99.90;;;;;;6193184;23;20018;-82
2022/05/17 03:13:35;;;;;;;7.30;3.85;;;12.80;99.90;;;;;;6156144;23;20025;-83
2022/05/17 03:16:04;;;;;;;7.38;4.88;;;12.80;99.90;;;;;;6191720;23;20333;-83
2022/05/17 03:18:41;;;;;;;3.50;2.80;;;12.80;99.90;;;;;;6157818;23;20348;-83
2022/05/17 03:21:09;;;;;;;5.00;2.65;;;12.80;99.90;;;;;;6184772;23;20052;-82
2022/05/17 03:23:37;;;;;;;4.57;2.67;;;12.80;99.90;;;;;;6191593;23;20048;-83
2022/05/17 03:26:05;;;;;;;5.88;3.20;;;12.80;99.90;;;;;;6183361;23;20025;-83
2022/05/17 03:28:33;;;;;;;3.40;3.17;;;12.80;99.90;;;;;;6180701;23;20031;-83
2022/05/17 03:31:00;;;;;;;4.85;3.58;;;12.80;99.90;;;;;;6190402;23;20468;-83
2022/05/17 03:33:28;;;;;;;3.42;3.03;;;12.80;99.90;;;;;;6156029;23;20029;-82
2022/05/17 03:35:56;;;;;;;3.63;3.13;;;12.80;99.90;;;;;;6180396;23;20322;-83
2022/05/17 03:38:25;;;;;;;3.72;2.45;;;12.70;99.90;;;;;;6192492;23;20767;-82
2022/05/17 03:40:54;;;;;;;4.90;3.33;;;12.80;99.90;;;;;;6188665;23;20043;-84
2022/05/17 03:43:22;;;;;;;7.53;4.63;;;12.70;99.90;;;;;;6193157;23;20017;-82
2022/05/17 03:45:50;;;;;;;4.50;3.25;;;12.70;99.90;;;;;;6155933;23;20481;-83
2022/05/17 03:48:18;;;;;;;4.57;2.83;;;12.70;99.90;;;;;;6180620;23;20017;-83
2022/05/17 03:50:46;;;;;;;7.80;3.38;;;12.70;99.90;;;;;;6181330;23;20357;-84
2022/05/17 03:53:14;;;;;;;7.22;3.15;;;12.70;99.90;;;;;;6185950;23;20024;-84
2022/05/17 03:55:42;;;;;;;4.55;2.83;;;12.70;99.90;;;;;;6166920;23;20017;-83
2022/05/17 03:58:12;;;;;;;5.60;2.97;;;12.70;99.90;;;;;;6127325;23;20059;-82
2022/05/17 04:00:40;;;;;;;4.25;3.63;;;12.70;99.90;;;;;;6168669;23;20495;-83
2022/05/17 04:03:08;;;;;;;7.22;2.70;;;12.70;99.90;;;;;;6190961;23;20017;-83
2022/05/17 04:05:37;;;;;;;5.25;3.80;;;12.70;99.90;;;;;;6185205;23;20028;-83
2022/05/17 04:08:05;;;;;;;5.88;3.33;;;12.70;99.90;;;;;;6154971;23;20447;-81
2022/05/17 04:10:32;;;;;;;3.50;2.70;;;12.60;99.90;;;;;;6131742;23;20017;-82
2022/05/17 04:13:00;;;;;;;3.88;3.45;;;12.70;99.90;;;;;;6131189;23;20032;-82
2022/05/17 04:15:28;;;;;;;4.80;2.25;;;12.60;99.90;;;;;;6131743;23;20028;-83
2022/05/17 04:17:55;;;;;;;5.88;3.42;;;12.60;99.90;;;;;;6156797;23;20029;-83
2022/05/17 04:20:24;;;;;;;4.60;3.42;;;12.70;99.90;;;;;;6184116;23;20022;-83
2022/05/17 04:22:53;;;;;;;7.50;3.58;;;12.70;99.90;;;;;;6161621;23;20468;-82
2022/05/17 04:25:24;;;;;;;6.50;3.55;;;12.70;99.90;;;;;;6129819;23;20032;-82
2022/05/17 04:27:53;;;;;;;5.95;4.22;;;12.70;99.90;;;;;;6102194;23;20018;-82
2022/05/17 04:30:22;;;;;;;6.03;3.28;;;12.70;99.90;;;;;;6130711;23;20028;-82
2022/05/17 04:32:50;;;;;;;6.45;3.00;;;12.70;99.90;;;;;;6137463;23;20051;-82
2022/05/17 04:35:18;;;;;;;9.75;4.05;;;12.70;99.90;;;;;;6131830;23;20017;-82
2022/05/17 04:37:50;;;;;;;16.23;5.00;;;12.80;99.90;;;;;;6182440;23;20033;-82
2022/05/17 04:40:18;;;;;;;7.53;3.63;;;12.80;99.90;;;;;;6164068;23;20352;-82
2022/05/17 04:42:47;;;;;;;6.63;4.90;;;12.80;99.90;;;;;;6166368;23;20437;-82
2022/05/17 04:45:17;;;;;;;9.63;4.05;;;12.80;99.90;;;;;;6186639;23;20416;-81
2022/05/17 04:47:45;;;;;;;9.15;3.17;;;12.80;99.90;;;;;;6191376;23;20352;-83
2022/05/17 04:50:15;;;;;;;8.05;4.18;;;12.80;99.90;;;;;;6181186;23;20627;-80
2022/05/17 04:52:43;;;;;;;5.97;3.58;;;12.80;99.90;;;;;;6197154;23;20344;-81
2022/05/17 04:55:11;;;;;;;6.07;3.05;;;12.80;99.90;;;;;;6194786;23;20016;-83
2022/05/17 04:57:39;;;;;;;4.40;3.80;;;12.80;99.90;;;;;;6159949;23;20380;-83
2022/05/17 05:00:11;;;;;;;9.02;4.00;;;12.90;99.90;;;;;;6194045;23;20439;-82
2022/05/17 05:02:38;;;;;;;17.40;6.53;;;12.90;99.90;;;;;;6184942;23;20486;-80
2022/05/17 05:05:07;;;;;;;7.13;5.10;;;12.90;99.90;;;;;;6216252;23;20351;-80
2022/05/17 05:07:34;;;;;;;5.63;4.20;;;13.00;99.90;;;;;;6184452;23;20016;-79
2022/05/17 05:10:03;;;;;;;5.65;5.15;;;13.00;99.90;;;;;;6212040;23;20021;-79
2022/05/17 05:12:31;;;;;;;4.43;3.15;;;13.10;99.90;;;;;;6219188;23;20030;-79
2022/05/17 05:15:16;;;;;;;9.15;4.57;;;13.10;99.90;;;;;;6221600;23;20020;-81
2022/05/17 05:18:39;;;;;;;11.90;3.75;;;13.20;99.90;;;;;;6208859;23;20024;-84
2022/05/17 05:21:35;;;;;;;8.57;3.95;;;13.30;99.90;;;;;;6167555;23;20016;-81
2022/05/17 05:24:32;;;;;;;4.97;4.40;;;13.30;99.90;;;;;;6161376;23;20017;-82
2022/05/17 05:27:38;;;;;;;12.93;4.30;;;13.30;99.90;;;;;;6164171;23;20017;-82
2022/05/17 05:30:08;;;;;;;8.43;5.20;;;13.30;99.90;;;;;;6159848;23;20025;-85
2022/05/17 05:32:36;;;;;;;7.33;4.37;;;13.40;99.90;;;;;;6167090;23;20028;-83
2022/05/17 05:35:05;;;;;;;9.63;5.32;;;13.40;99.90;;;;;;6221278;23;20028;-84
2022/05/17 05:37:33;;;;;;;8.18;4.97;;;13.40;99.90;;;;;;6132929;23;20039;-82
2022/05/17 05:40:02;;;;;;;8.32;4.18;;;13.50;99.90;;;;;;6158956;23;20028;-84
2022/05/17 05:42:32;;;;;;;7.18;3.97;;;13.50;99.90;;;;;;6161283;23;20017;-84
2022/05/17 05:45:01;;;;;;;4.95;3.58;;;13.50;99.90;;;;;;6158581;23;20028;-83
2022/05/17 05:47:28;;;;;;;8.85;4.25;;;13.60;99.90;;;;;;6220393;23;20294;-81
2022/05/17 05:49:56;;;;;;;6.15;4.47;;;13.60;99.90;;;;;;6184059;23;21120;-84
2022/05/17 05:52:25;;;;;;;4.30;3.90;;;13.60;99.90;;;;;;6134873;23;20029;-83
2022/05/17 05:54:53;;;;;;;7.22;4.53;;;13.70;99.90;;;;;;6185038;23;20020;-82
2022/05/17 05:57:20;;;;;;;4.13;3.45;;;13.70;99.90;;;;;;6184666;23;20028;-84
2022/05/17 05:59:48;;;;;;;7.95;4.93;;;13.80;99.90;;;;;;6159390;23;20016;-83
2022/05/17 06:02:16;;;;;;;5.35;4.43;;;13.90;99.90;;;;;;6211237;23;20464;-84
2022/05/17 06:04:44;;;;;;;3.47;3.17;;;14.00;99.90;;;;;;6217931;23;20027;-83
2022/05/17 06:07:12;;;;;;;6.47;5.53;;;14.00;99.90;;;;;;6220948;23;20013;-83
2022/05/17 06:09:40;;;;;;;4.88;3.90;;;14.00;99.90;;;;;;6187421;23;20024;-83
2022/05/17 06:12:09;;;;;;;11.70;4.22;;;14.10;99.90;;;;;;6179327;23;20020;-84
2022/05/17 06:14:37;;;;;;;12.00;4.93;;;14.20;99.90;;;;;;6159708;23;20024;-82
2022/05/17 06:17:05;;;;;;;6.80;3.42;;;14.20;99.90;;;;;;6185585;23;20028;-84
2022/05/17 06:19:34;;;;;;;5.35;4.50;;;14.30;99.90;;;;;;6192818;23;20023;-83
2022/05/17 06:22:01;;;;;;;4.45;3.13;;;14.40;99.90;;;;;;6160243;23;20032;-84
2022/05/17 06:24:30;;;;;;;4.88;3.75;;;14.40;99.90;;;;;;6220342;23;20024;-83
2022/05/17 06:26:57;;;;;;;9.88;5.13;;;14.50;99.90;;;;;;6186552;23;20347;-85
2022/05/17 06:29:26;;;;;;;8.43;4.13;;;14.60;99.90;;;;;;6189659;23;20021;-83
2022/05/17 06:31:54;;;;;;;6.95;4.80;;;14.60;99.90;;;;;;6161204;23;20725;-84
2022/05/17 06:34:22;;;;;;;5.38;4.03;;;14.70;99.90;;;;;;6135706;23;20055;-81
2022/05/17 06:36:49;;;;;;;5.72;5.03;;;14.70;99.90;;;;;;6191539;23;20024;-84
2022/05/17 06:39:20;;;;;;;12.07;4.80;;;14.60;99.90;;;;;;6161916;23;20079;-84
2022/05/17 06:41:48;;;;;;;7.82;4.75;;;14.60;99.90;;;;;;6184766;23;20032;-82
2022/05/17 06:44:16;;;;;;;6.57;4.20;;;14.50;99.90;;;;;;6184820;23;20025;-77
2022/05/17 06:46:44;;;;;;;10.85;4.70;;;14.50;99.90;;;;;;6195470;23;20436;-77
2022/05/17 06:49:12;;;;;;;6.85;5.00;;;14.40;99.90;;;;;;6215492;23;20067;-77
2022/05/17 06:51:41;;;;;;;6.95;3.70;;;14.40;99.90;;;;;;6211639;23;20040;-77
2022/05/17 06:54:11;;;;;;;5.68;4.95;;;14.40;99.90;;;;;;6185308;23;20027;-78
2022/05/17 06:56:49;;;;;;;7.95;4.78;;;14.30;99.90;;;;;;6211543;23;20023;-79
2022/05/17 06:59:32;;;;;;;8.70;4.80;;;14.30;99.90;;;;;;6185308;23;20012;-77
2022/05/17 07:02:04;;;;;;;7.65;3.80;;;14.40;99.90;;;;;;6212968;23;20352;-78
2022/05/17 07:04:33;;;;;;;3.45;3.03;;;14.40;99.90;;;;;;6217944;23;20025;-78
2022/05/17 07:07:04;;;;;;;5.45;4.13;;;14.50;99.90;;;;;;6185536;23;20340;-79
2022/05/17 07:09:33;;;;;;;20.88;5.68;;;14.80;99.90;;;;;;6214675;23;20025;-79
2022/05/17 07:14:51;;;;;;;10.02;5.25;;;15.10;99.90;;;;;;6222907;23;20016;-80
2022/05/17 07:17:21;;;;;;;8.25;6.38;;;15.00;99.90;;;;;;6216021;23;20474;-78
2022/05/17 07:19:50;;;;;;;7.20;4.82;;;15.30;99.90;;;;;;6210432;23;20017;-79
2022/05/17 07:22:18;;;;;;;5.93;4.03;;;15.60;99.90;;;;;;6211053;23;20021;-77
2022/05/17 07:24:46;;;;;;;6.65;5.25;;;15.90;99.90;;;;;;6185339;23;20024;-78
2022/05/17 07:27:15;;;;;;;9.40;4.78;;;16.10;99.90;;;;;;6221912;23;20467;-78
2022/05/17 07:29:48;;;;;;;10.18;4.97;;;16.20;99.90;;;;;;6213453;23;20440;-78
2022/05/17 07:32:16;;;;;;;6.13;4.57;;;16.20;99.90;;;;;;6159145;23;20028;-80
2022/05/17 07:34:47;;;;;;;10.45;5.75;;;16.20;99.90;;;;;;6184948;23;20020;-79
2022/05/17 07:37:16;;;;;;;7.40;4.82;;;16.30;99.90;;;;;;6213872;23;20032;-79
2022/05/17 07:39:44;;;;;;;5.47;4.28;;;16.60;99.90;;;;;;6222591;23;20017;-79
2022/05/17 07:42:12;;;;;;;8.48;5.30;;;16.50;99.90;;;;;;6212665;23;20451;-81
2022/05/17 07:44:40;;;;;;;7.40;5.10;;;16.60;99.90;;;;;;6218984;23;20071;-82
2022/05/17 07:47:15;;;;;;;6.35;5.68;;;16.60;99.90;;;;;;6219834;23;20699;-78
2022/05/17 07:49:43;;;;;;;5.45;4.95;;;16.70;99.90;;;;;;6213602;23;20024;-78
2022/05/17 07:52:13;;;;;;;10.50;5.35;;;16.80;99.90;;;;;;6219978;23;20447;-78
2022/05/17 07:54:41;;;;;;;10.93;6.50;;;17.00;99.90;;;;;;6210961;23;20020;-80
2022/05/17 07:57:09;;;;;;;14.55;6.25;;;17.20;99.90;;;;;;6217039;23;20020;-79
2022/05/17 07:59:36;;;;;;;5.38;4.88;;;17.40;99.90;;;;;;6185539;23;20024;-79
2022/05/17 08:02:06;;;;;;;5.68;4.72;;;17.40;99.90;;;;;;6212608;23;20046;-80
2022/05/17 08:04:34;;;;;;;6.32;4.45;;;17.00;99.90;;;;;;6219441;23;20013;-78
2022/05/17 08:07:02;;;;;;;9.07;6.60;;;16.70;99.90;;;;;;6221596;23;20013;-79
2022/05/17 08:09:30;;;;;;;9.88;4.82;;;16.60;99.90;;;;;;6213359;23;20029;-78
2022/05/17 08:11:58;;;;;;;9.73;5.22;;;16.90;99.90;;;;;;6221334;23;20013;-80
2022/05/17 08:14:26;;;;;;;6.65;4.40;;;17.10;99.90;;;;;;6222039;23;20017;-80
2022/05/17 08:16:54;;;;;;;7.85;5.28;;;17.00;99.90;;;;;;6216879;23;20020;-79
2022/05/17 08:19:21;;;;;;;9.95;6.22;;;16.80;99.90;;;;;;6184745;23;20344;-79
2022/05/17 08:21:49;;;;;;;6.10;5.43;;;16.60;99.90;;;;;;6212354;23;20024;-79
2022/05/17 08:24:17;;;;;;;6.65;5.03;;;16.70;99.90;;;;;;6220516;23;20344;-80
2022/05/17 08:29:31;;;;;;;9.15;6.75;;;17.30;99.90;;;;;;6187527;23;20024;-78
2022/05/17 08:34:44;;;;;;;18.70;6.90;;;17.10;99.90;;;;;;6221656;23;20016;-79
2022/05/17 08:37:12;;;;;;;8.43;5.50;;;17.30;99.90;;;;;;6212777;23;20032;-81
2022/05/17 08:39:40;;;;;;;6.80;4.35;;;17.30;99.90;;;;;;6184283;23;20016;-82
2022/05/17 08:42:21;;;;;;;5.05;4.47;;;17.50;99.90;;;;;;6159627;23;20036;-81
2022/05/17 08:44:55;;;;;;;5.95;3.97;;;17.70;99.90;;;;;;6184771;23;20016;-79
2022/05/17 08:47:45;;;;;;;5.90;4.97;;;17.70;99.90;;;;;;6184983;23;20018;-81
2022/05/17 08:50:36;;;;;;;6.32;5.13;;;17.50;99.90;;;;;;6203843;23;20033;-79
2022/05/17 08:53:10;;;;;;;21.23;7.15;;;17.60;99.90;;;;;;6209140;23;20036;-83
2022/05/17 08:55:42;;;;;;;13.15;5.53;;;17.70;99.90;;;;;;6192191;23;20009;-82
2022/05/17 08:58:19;;;;;;;6.53;5.80;;;17.70;99.90;;;;;;6203254;23;20043;-81
2022/05/17 09:00:59;;;;;;;4.85;4.43;;;17.70;99.90;;;;;;6175537;23;20368;-80
2022/05/17 09:03:53;;;;;;;14.98;6.22;;;17.90;99.90;;;;;;6162005;23;20333;-82
2022/05/17 09:06:32;;;;;;;6.18;5.35;;;17.90;99.90;;;;;;6179910;23;20031;-80
2022/05/17 09:09:22;;;;;;;5.15;4.10;;;17.80;99.90;;;;;;6154899;23;20024;-83
2022/05/17 09:12:02;;;;;;;5.70;5.07;;;17.80;99.90;;;;;;6190293;23;20013;-83
2022/05/17 09:14:33;;;;;;;6.70;4.40;;;17.60;99.90;;;;;;6163216;23;20436;-80
2022/05/17 09:17:12;;;;;;;8.60;5.40;;;17.60;99.90;;;;;;6186261;23;20052;-82
2022/05/17 09:19:41;;;;;;;4.65;4.05;;;17.80;99.90;;;;;;6164846;23;20021;-79
2022/05/17 09:22:10;;;;;;;6.93;5.85;;;17.90;99.90;;;;;;6180419;23;20025;-82
2022/05/17 09:24:59;;;;;;;12.23;5.28;;;18.20;99.90;;;;;;6156828;23;20044;-82
2022/05/17 09:27:30;;;;;;;7.13;5.32;;;18.60;99.90;;;;;;6160857;23;20024;-81
2022/05/17 09:30:10;;;;;;;4.07;3.78;;;18.60;99.90;;;;;;6177253;23;20029;-81
2022/05/17 09:32:43;;;;;;;7.63;4.32;;;18.40;99.90;;;;;;6188117;23;20017;-79
2022/05/17 09:35:15;;;;;;;5.80;4.18;;;18.30;99.90;;;;;;6191741;23;20009;-81
2022/05/17 09:37:50;;;;;;;5.63;4.22;;;18.10;99.90;;;;;;6181813;23;20372;-83
2022/05/17 09:40:30;;;;;;;7.75;4.65;;;18.00;99.90;;;;;;6154591;23;20019;-82
2022/05/17 09:42:59;;;;;;;3.42;3.13;;;17.80;99.90;;;;;;6140688;23;20460;-80
2022/05/17 09:45:45;;;;;;;5.05;4.32;;;18.00;99.90;;;;;;6184987;23;20067;-81
2022/05/17 09:48:27;;;;;;;15.32;5.50;;;18.30;99.90;;;;;;6186980;23;20017;-80
2022/05/17 09:53:50;;;;;;;9.55;4.57;;;18.80;99.90;;;;;;6185083;23;19927;-83
2022/05/17 09:56:26;;;;;;;4.70;4.30;;;19.00;99.90;;;;;;6164756;23;20025;-81
2022/05/17 09:58:56;;;;;;;7.40;3.17;;;18.90;99.90;;;;;;6192886;23;20013;-82
2022/05/17 10:01:38;;;;;;;3.80;3.45;;;18.60;99.90;;;;;;6184493;23;20469;-80
2022/05/17 10:04:12;;;;;;;5.05;3.78;;;18.30;99.90;;;;;;6191851;23;20017;-82
2022/05/17 10:06:44;;;;;;;4.13;3.83;;;18.00;99.90;;;;;;6155840;23;20435;-81
2022/05/17 10:09:28;;;;;;;9.00;4.00;;;18.20;99.90;;;;;;6155742;23;20033;-83
2022/05/17 10:12:07;;;;;;;4.82;4.05;;;18.50;99.90;;;;;;6156970;23;20427;-82
2022/05/17 10:14:44;;;;;;;5.63;3.88;;;18.70;99.90;;;;;;6165766;23;20463;-82
2022/05/17 10:17:36;;;;;;;4.18;3.15;;;18.70;99.90;;;;;;6186552;23;20021;-84
2022/05/17 10:20:15;;;;;;;5.47;3.55;;;18.60;99.90;;;;;;6162985;23;20044;-81
2022/05/17 10:23:06;;;;;;;3.53;3.22;;;18.70;99.90;;;;;;6155086;23;20020;-82
2022/05/17 10:25:43;;;;;;;4.07;3.47;;;18.90;99.90;;;;;;6155680;23;20025;-83
2022/05/17 10:28:33;;;;;;;4.88;3.63;;;18.80;99.90;;;;;;6190833;23;20013;-82
2022/05/17 10:31:29;;;;;;;3.40;3.10;;;18.90;99.90;;;;;;6156269;23;20013;-85
2022/05/17 10:34:24;;;;;;;19.60;4.93;;;19.10;99.90;;;;;;6180990;23;20032;-82
2022/05/17 10:37:00;;;;;;;6.28;5.05;;;19.10;99.90;;;;;;6181739;23;20028;-82
2022/05/17 10:39:34;;;;;;;4.97;4.43;;;19.10;99.90;;;;;;6155101;23;20428;-83
2022/05/17 10:42:04;;;;;;;5.53;3.88;;;19.30;99.90;;;;;;6105833;23;20104;-81
2022/05/17 10:44:38;;;;;;;13.00;4.10;;;19.30;99.90;;;;;;6158287;23;20345;-80
2022/05/17 10:47:21;;;;;;;8.25;3.92;;;19.30;99.90;;;;;;6158561;23;20021;-80
2022/05/17 10:50:08;;;;;;;5.25;4.57;;;19.30;99.90;;;;;;6154245;23;20091;-79
2022/05/17 10:52:43;;;;;;;4.78;2.75;;;19.30;99.90;;;;;;6156744;23;20022;-85
2022/05/17 10:55:32;;;;;;;7.47;4.97;;;19.40;99.90;;;;;;6125432;23;20021;-79
2022/05/17 10:58:14;;;;;;;6.28;3.33;;;19.60;99.90;;;;;;6153692;23;20025;-81
2022/05/17 11:00:47;;;;;;;5.30;3.33;;;19.30;99.90;;;;;;6156509;23;20021;-84
2022/05/17 11:03:44;;;;;;;15.15;4.00;;;19.40;99.90;;;;;;6157778;23;20021;-81
2022/05/17 11:06:32;;;;;;;7.93;2.97;;;19.60;99.90;;;;;;6125533;23;20072;-82
2022/05/17 11:09:15;;;;;;;12.00;3.22;;;19.70;99.90;;;;;;6154614;23;20025;-81
2022/05/17 11:11:52;;;;;;;3.67;3.25;;;19.80;99.90;;;;;;6162948;23;20018;-87
2022/05/17 11:14:30;;;;;;;4.23;2.97;;;19.80;99.90;;;;;;6124760;23;20476;-82
2022/05/17 11:17:17;;;;;;;3.88;2.85;;;19.90;99.90;;;;;;6144107;23;20668;-86
2022/05/17 11:19:52;;;;;;;4.20;3.05;;;19.90;99.90;;;;;;6165736;23;20020;-83
2022/05/17 11:22:35;;;;;;;2.65;2.45;;;19.60;99.90;;;;;;6130316;23;20020;-83
2022/05/17 11:25:07;;;;;;;3.40;2.30;;;19.40;99.90;;;;;;6160547;23;20028;-84
2022/05/17 11:27:56;;;;;;;1.70;1.60;;;19.80;99.90;;;;;;6190030;23;20025;-82
2022/05/17 11:30:49;;;;;;;3.85;1.88;;;20.00;99.90;;;;;;6180004;23;20029;-83
2022/05/17 11:33:23;;;;;;;2.13;1.80;;;20.00;99.90;;;;;;6185607;23;20025;-85
2022/05/17 11:36:01;;;;;;;3.70;2.90;;;19.80;99.90;;;;;;6192402;23;20020;-84
2022/05/17 11:38:32;;;;;;;3.40;1.88;;;20.10;99.90;;;;;;6180794;23;20025;-80
2022/05/17 11:41:06;;;;;;;2.47;2.28;;;20.30;99.90;;;;;;6186395;23;20472;-81
2022/05/17 11:43:47;;;;;;;4.35;2.55;;;20.30;99.90;;;;;;6192372;23;20024;-82
2022/05/17 11:46:24;;;;;;;5.22;1.83;;;20.20;99.90;;;;;;6181932;23;20471;-82
2022/05/17 11:49:01;;;;;;;4.40;1.85;;;20.20;99.90;;;;;;6187883;23;20017;-84
2022/05/17 11:51:38;;;;;;;2.67;2.08;;;19.90;99.90;;;;;;6181376;23;20436;-81
2022/05/17 11:54:10;;;;;;;5.93;2.15;;;19.60;99.90;;;;;;6185595;23;20017;-82
2022/05/17 11:56:39;;;;;;;2.72;1.85;;;19.70;99.90;;;;;;6218874;23;20032;-81
2022/05/17 11:59:13;;;;;;;3.22;2.15;;;20.10;99.90;;;;;;6222233;23;20440;-80
2022/05/17 12:01:44;;;;;;;2.33;2.15;;;20.10;99.90;;;;;;6214151;23;20471;-84
2022/05/17 12:04:21;;;;;;;4.78;3.10;;;20.00;99.90;;;;;;6220474;23;20016;-79
2022/05/17 12:06:48;;;;;;;2.03;1.90;;;19.90;99.90;;;;;;6222372;23;20319;-83
2022/05/17 12:09:27;;;;;;;2.00;1.90;;;19.80;99.90;;;;;;6184979;23;20031;-82
2022/05/17 12:12:24;;;;;;;1.92;1.77;;;19.60;99.90;;;;;;6194592;23;20013;-81
2022/05/17 12:15:16;;;;;;;2.35;2.15;;;19.80;99.90;;;;;;6199387;23;20029;-77
2022/05/17 12:17:52;;;;;;;6.53;2.33;;;20.10;99.90;;;;;;6213474;23;20016;-79
2022/05/17 12:21:07;;;;;;;2.83;2.60;;;20.40;99.90;;;;;;6219498;23;20024;-79
2022/05/17 12:24:07;;;;;;;3.53;2.45;;;20.50;99.90;;;;;;6222474;23;20019;-77
2022/05/17 12:26:50;;;;;;;3.97;2.47;;;20.50;99.90;;;;;;6155188;23;20029;-78
2022/05/17 12:32:10;;;;;;;4.85;2.38;;;20.40;99.90;;;;;;6219801;23;20023;-77
2022/05/17 12:34:39;;;;;;;2.10;1.83;;;20.60;99.90;;;;;;6221856;23;20432;-77
2022/05/17 12:37:12;;;;;;;2.67;2.47;;;20.60;99.90;;;;;;6215353;23;20456;-77
2022/05/17 12:45:23;;;;;;;4.20;2.55;;;20.60;99.90;;;;;;6215584;23;20024;-82
2022/05/17 12:47:53;;;;;;;2.33;2.22;;;20.40;99.90;;;;;;6221134;23;20020;-78
2022/05/17 12:50:35;;;;;;;3.13;2.92;;;20.00;99.90;;;;;;6209454;23;20344;-80
2022/05/17 12:53:12;;;;;;;5.10;3.10;;;19.90;99.90;;;;;;6213231;23;20048;-79
2022/05/17 12:55:41;;;;;;;3.63;3.08;;;20.50;99.90;;;;;;6219836;23;20036;-79
2022/05/17 12:58:11;;;;;;;5.30;2.90;;;20.80;99.90;;;;;;6210866;23;20021;-80
2022/05/17 13:00:39;;;;;;;3.08;2.78;;;21.10;99.90;;;;;;6159698;23;20027;-83
2022/05/17 13:03:17;;;;;;;2.08;1.55;;;21.10;99.90;;;;;;6195000;23;20020;-80
2022/05/17 13:05:51;;;;;;;3.83;2.38;;;21.00;99.90;;;;;;6213192;23;20478;-82
2022/05/17 13:08:37;;;;;;;2.55;2.13;;;20.90;99.90;;;;;;6218179;23;20027;-80
2022/05/17 13:11:25;;;;;;;2.38;2.17;;;21.00;99.90;;;;;;6219702;23;20358;-80
2022/05/17 13:14:01;;;;;;;2.33;2.17;;;20.90;99.90;;;;;;6184212;23;20608;-79
2022/05/17 13:16:33;;;;;;;3.08;2.75;;;21.00;99.90;;;;;;6191578;23;20020;-80
2022/05/17 13:19:04;;;;;;;4.15;3.25;;;21.30;99.90;;;;;;6221576;23;20493;-82
2022/05/17 13:21:40;;;;;;;5.22;2.78;;;21.50;99.90;;;;;;6212310;23;20059;-79
2022/05/17 13:24:20;;;;;;;2.08;1.98;;;21.70;99.90;;;;;;6183167;23;20482;-78
2022/05/17 13:26:49;;;;;;;3.53;3.22;;;21.40;99.90;;;;;;6185290;23;20028;-80
2022/05/17 13:29:23;;;;;;;7.53;3.13;;;21.30;99.90;;;;;;6217218;23;20040;-79
2022/05/17 13:32:00;;;;;;;3.58;2.80;;;21.40;99.90;;;;;;6222858;23;20013;-80
2022/05/17 13:34:35;;;;;;;3.08;2.88;;;21.30;99.90;;;;;;6210789;23;20518;-80
2022/05/17 13:37:06;;;;;;;10.25;2.90;;;21.40;99.90;;;;;;6217389;23;20028;-83
2022/05/17 13:39:45;;;;;;;2.92;2.67;;;21.70;99.90;;;;;;6212883;23;20040;-80
2022/05/17 13:42:23;;;;;;;7.18;3.05;;;21.50;99.90;;;;;;6185374;23;20029;-81